EGGP

Liverpool John Lennon Airport

Liverpool, United Kingdom
METAR EGGP 200150Z 13004KT CAVOK 09/07 Q1028
Observed Flight Rules
Oct-20 @ 01:50 UTC (20 minutes ago) Visual Flight Rules
Wind Visibility Clouds
130° at 4 knots 10,000+ meters
  • Clear skies
Temperatures Readings
Current 9°C / 48°F
Dewpoint 7°C / 45°F
Humidity 87%
Altimeter 30.35" Hg
Pressure 1028 hPa
Elevation 26
METAR EGGP 200150Z 13004KT CAVOK 09/07 Q1028
Observed Flight Rules
Oct-20 @ 01:50 UTC
(20 minutes ago)
VFR
Wind Visibility
130° at 4 knots 10,000+ meters
Clouds
  • Clear skies
Temperature Dewpoint
9°C / 48°F 7°C / 45°F
Humidity Altimeter Pressure
87% 30.35" Hg 1028 hPa